• Join FlightAware (Why Join?)
  • Login
  • US Flag 
01:11PM EDT


 

Airport Tracker/Info


-or-


 

Live Flight TrackerFlight Track Log ✈ SWA2166 ✈ 11-Apr-2013 ✈ KMCO - KBHM

Flight Track Log - Related Links

Times and Time Zones

All times are in EDT time to prevent confusion due to time zone crossing. See the SWA2166 flight status page for this flight to view local times or setup timezone preferences in your user account.

Time Position Orientation Groundspeed Altitude Reporting Facility
EDT Latitude Longitude Course Direction KTS MPH feet Rate Location/Type
06:22PM 28.4000 -81.3000 210° Southwest 154 177 800  Level Orlando TRACON
06:23PM 28.3500 -81.3333 210° Southwest 229 264 2,900 2,280 Climbing Orlando TRACON
06:24PM 28.3333 -81.4000 254° West 255 293 5,900 2,460 Climbing Orlando TRACON
06:25PM 28.3500 -81.4833 283° West 278 320 8,400 2,160 Climbing Orlando TRACON
06:27PM 28.3733 -81.6328 280° West 300 345 11,500 2,280 Climbing Jacksonville Center
06:28PM 28.4119 -81.7361 293° West 328 377 14,200 2,400 Climbing Jacksonville Center
06:29PM 28.4481 -81.8347 293° West 356 410 16,300 2,700 Climbing Jacksonville Center
06:30PM 28.4886 -81.9383 294° West 364 419 19,700 3,000 Climbing Jacksonville Center
06:31PM 28.5478 -82.0300 306° West 364 419 22,300 2,340 Climbing Jacksonville Center
06:32PM 28.6067 -82.1311 304° West 359 413 24,400 1,140 Climbing Jacksonville Center
06:33PM 28.6511 -82.2419 295° West 364 419 24,600 900 Climbing Jacksonville Center
06:34PM 28.6975 -82.3458 297° West 390 449 26,200 1,560 Climbing Jacksonville Center
06:35PM 28.7419 -82.4664 293° West 406 467 27,800 1,860 Climbing Jacksonville Center
06:36PM 28.7881 -82.5822 294° West 406 467 30,000 1,920 Climbing Jacksonville Center
06:37PM 28.8300 -82.6936 293° West 401 461 31,700 1,500 Climbing Jacksonville Center
06:38PM 28.8844 -82.7953 301° West 388 447 33,000 1,140 Climbing Jacksonville Center
06:39PM 28.9722 -82.8689 324° Northwest 374 430 34,000 480 Climbing Jacksonville Center
06:40PM 29.0619 -82.9400 325° Northwest 387 445 34,000 360 Level Jacksonville Center
06:41PM 29.1536 -83.0114 326° Northwest 392 451 34,800 900 Climbing Jacksonville Center
06:42PM 29.2392 -83.0831 324° Northwest 392 451 35,800 600 Climbing Jacksonville Center
06:43PM 29.3372 -83.1617 325° Northwest 387 445 36,000 60 Climbing Jacksonville Center
06:44PM 29.4247 -83.2358 324° Northwest 387 445 36,000  Level Jacksonville Center
06:45PM 29.5100 -83.3078 324° Northwest 387 445 36,000  Level Jacksonville Center
06:46PM 29.5997 -83.3797 325° Northwest 387 445 36,000  Level Jacksonville Center
06:47PM 29.6869 -83.4497 325° Northwest 387 445 36,000  Level Jacksonville Center
06:48PM 29.7744 -83.5244 323° Northwest 387 445 36,000  Level Jacksonville Center
06:49PM 29.8636 -83.5942 326° Northwest 387 445 36,000  Level Jacksonville Center
06:50PM 29.9511 -83.6669 324° Northwest 387 445 36,000  Level Jacksonville Center
06:51PM 30.0425 -83.7419 325° Northwest 393 452 36,000  Level Jacksonville Center
06:52PM 30.1317 -83.8147 325° Northwest 393 452 36,000  Level Jacksonville Center
06:53PM 30.2208 -83.8925 323° Northwest 393 452 36,000  Level Jacksonville Center
06:54PM 30.3142 -83.9681 325° Northwest 398 458 36,000  Level Jacksonville Center
06:55PM 30.4053 -84.0439 324° Northwest 404 465 36,000  Level Jacksonville Center
06:56PM 30.4944 -84.1147 326° Northwest 404 465 36,000  Level Jacksonville Center
06:57PM 30.5711 -84.1808 323° Northwest 404 465 36,000  Level Jacksonville Center
06:58PM 30.6600 -84.2569 324° Northwest 397 457 36,000  Level Jacksonville Center
06:59PM 30.7492 -84.3261 326° Northwest 397 457 36,000  Level Jacksonville Center
07:00PM 30.8358 -84.4000 324° Northwest 397 457 36,000  Level Jacksonville Center
07:01PM 30.9228 -84.4739 324° Northwest 392 451 36,000  Level Jacksonville Center
07:02PM 31.0117 -84.5458 325° Northwest 392 451 36,000  Level Jacksonville Center
07:03PM 31.1025 -84.6200 325° Northwest 392 451 36,000 -600 Level Jacksonville Center
07:05PM 31.3186 -84.8044 324° Northwest 399 459 34,100 -600 Descending Atlanta Center
07:06PM 31.4119 -84.8856 323° Northwest 405 466 34,000 -60 Descending Atlanta Center
07:07PM 31.5072 -84.9669 324° Northwest 412 474 34,000  Level Atlanta Center
07:08PM 31.6028 -85.0433 326° Northwest 412 474 34,000  Level Atlanta Center
07:09PM 31.6917 -85.1250 322° Northwest 412 474 34,000 -360 Level Atlanta Center
07:10PM 31.7744 -85.2114 318° Northwest 404 465 33,300 -900 Descending Atlanta Center
07:11PM 31.8192 -85.3219 295° West 388 447 32,300 -660 Descending Atlanta Center
07:12PM 31.8661 -85.4400 295° West 388 447 32,000 -180 Descending Atlanta Center
07:13PM 31.9358 -85.5414 309° West 388 447 32,000  Level Atlanta Center
07:14PM 32.0117 -85.6433 311° West 405 466 32,000  Level Atlanta Center
07:15PM 32.0878 -85.7400 313° West 410 472 32,000  Level Atlanta Center
07:16PM 32.1614 -85.8447 310° West 410 472 32,000  Level Atlanta Center
07:17PM 32.2369 -85.9444 312° West 410 472 32,000  Level Atlanta Center
07:18PM 32.3208 -86.0494 313° West 405 466 32,000  Level Atlanta Center
07:19PM 32.3986 -86.1447 314° West 400 460 32,000  Level Atlanta Center
07:20PM 32.4700 -86.2472 310° West 395 455 32,000  Level Atlanta Center
07:21PM 32.5539 -86.3431 316° Northwest 402 463 32,000  Level Atlanta Center
07:22PM 32.6311 -86.4386 314° West 407 468 32,000 -600 Level Atlanta Center
07:23PM 32.7086 -86.5347 314° West 407 468 30,800 -2,040 Descending Atlanta Center
07:24PM 32.7839 -86.6331 312° West 407 468 28,000 -2,820 Descending Atlanta Center
07:25PM 32.8100 -86.6758 306° West 406 467 27,000 -2,520 Descending Atlanta Center
07:25PM 32.8589 -86.7367 314° West 407 468 25,500 -2,700 Descending Atlanta Center
07:26PM 32.8892 -86.7772 312° West 414 476 24,300 -2,940 Descending Atlanta Center
07:26PM 32.9403 -86.8308 319° Northwest 407 468 22,600 -2,880 Descending Atlanta Center
07:27PM 32.9683 -86.8761 306° West 414 476 21,400 -2,700 Descending Atlanta Center
07:27PM 33.0192 -86.9350 316° Northwest 407 468 19,900 -2,640 Descending Atlanta Center
07:28PM 33.0456 -86.9753 308° West 399 459 18,800 -2,700 Descending Atlanta Center
07:28PM 33.0942 -87.0342 315° West 407 468 17,200 -2,640 Descending Atlanta Center
07:28PM 33.1142 -87.0669 306° West 390 449 16,400 -1,920 Descending Atlanta Center
07:29PM 33.1547 -87.1156 315° West 390 449 15,300 -1,920 Descending Atlanta Center
07:29PM 33.1850 -87.1564 312° West 366 421 14,500 -1,740 Descending Atlanta Center
07:30PM 33.2214 -87.2022 314° West 368 423 13,600 -1,500 Descending Atlanta Center
07:31PM 33.3017 -87.2425 337° Northwest 334 384 12,000 -1,500 Descending Atlanta Center
07:32PM 33.3667 -87.1506 50° Northeast 264 304 10,600 -1,380 Descending Atlanta Center
07:32PM 33.3781 -87.1136 70° East 323 372 10,200 -1,500 Descending Atlanta Center
07:33PM 33.3981 -87.0619 65° Northeast 256 295 9,100 -2,100 Descending Atlanta Center
07:34PM 33.4117 -87.0225 68° East 267 307 8,100 -1,440 Descending Atlanta Center
07:34PM 33.4314 -86.9836 59° Northeast 256 295 7,700 -600 Descending Atlanta Center
07:34PM 33.4422 -86.9639 57° Northeast 211 243 7,600 -1,980 Descending Atlanta Center
07:35PM 33.4728 -86.9128 54° Northeast 200 230 5,200 -2,340 Descending Atlanta Center
07:36PM 33.5094 -86.8542 53° Northeast 203 234 2,900 -2,280 Descending Atlanta Center